createdAt,value
2022-11-05T00:01:31.316Z,66.50
2022-11-05T00:04:19.732Z,66.30
2022-11-05T00:07:08.106Z,66.30
2022-11-05T00:09:39.004Z,66.40
2022-11-05T00:12:33.183Z,66.40
2022-11-05T00:15:21.565Z,66.30
2022-11-05T00:17:51.744Z,66.40
2022-11-05T00:20:21.982Z,66.30
2022-11-05T00:23:10.351Z,66.30
2022-11-05T00:25:40.714Z,66.30
2022-11-05T00:28:10.959Z,66.40
2022-11-05T00:30:41.184Z,66.40
2022-11-05T00:33:12.103Z,66.50
2022-11-05T00:35:42.704Z,66.30
2022-11-05T00:38:13.273Z,66.40
2022-11-05T00:40:43.494Z,66.30
2022-11-05T00:43:31.555Z,66.40
2022-11-05T00:46:01.924Z,66.40
2022-11-05T00:48:50.245Z,66.40
2022-11-05T00:51:20.692Z,66.40
2022-11-05T00:53:50.889Z,66.40
2022-11-05T00:56:21.142Z,66.30
2022-11-05T00:58:51.305Z,66.30
2022-11-05T01:01:21.620Z,66.30
2022-11-05T01:03:52.124Z,66.20
2022-11-05T01:06:22.596Z,66.20
2022-11-05T01:08:52.838Z,66.10
2022-11-05T01:11:35.460Z,66.10
2022-11-05T01:14:07.089Z,66.10
2022-11-05T01:16:39.183Z,66.10
2022-11-05T01:19:11.405Z,66.00
2022-11-05T01:21:41.849Z,66.10
2022-11-05T01:24:13.584Z,66.80
2022-11-05T01:26:43.717Z,66.10
2022-11-05T01:29:14.147Z,66.00
2022-11-05T01:31:44.427Z,66.00
2022-11-05T01:34:14.764Z,66.00
2022-11-05T01:36:44.993Z,65.90
2022-11-05T01:39:15.270Z,65.90
2022-11-05T01:41:45.516Z,65.90
2022-11-05T01:44:52.091Z,65.90
2022-11-05T01:47:28.789Z,65.70
2022-11-05T01:50:02.935Z,65.90
2022-11-05T01:52:35.579Z,65.90
2022-11-05T01:55:06.801Z,65.90
2022-11-05T01:57:37.272Z,65.90
2022-11-05T02:00:08.391Z,65.80
2022-11-05T02:02:39.075Z,65.80
2022-11-05T02:05:10.438Z,65.80
2022-11-05T02:07:41.000Z,65.80
2022-11-05T02:10:15.608Z,65.80
2022-11-05T02:12:48.539Z,65.70
2022-11-05T02:15:41.474Z,65.80
2022-11-05T02:18:43.116Z,65.70
2022-11-05T02:21:24.591Z,65.60
2022-11-05T02:23:54.851Z,65.70
2022-11-05T02:27:12.414Z,65.80
2022-11-05T02:29:57.288Z,65.60
2022-11-05T02:33:04.439Z,65.80
2022-11-05T02:35:55.114Z,65.60
2022-11-05T02:39:09.291Z,65.70
2022-11-05T02:42:05.296Z,65.70
2022-11-05T02:45:05.115Z,65.70
2022-11-05T02:47:44.471Z,65.50
2022-11-05T02:50:23.619Z,65.60
2022-11-05T02:52:56.913Z,65.60
2022-11-05T02:55:34.814Z,65.60
2022-11-05T02:58:07.132Z,65.60
2022-11-05T03:00:37.590Z,65.60
2022-11-05T03:03:12.539Z,65.60
2022-11-05T03:06:19.022Z,65.70
2022-11-05T03:09:14.194Z,65.70
2022-11-05T03:11:53.314Z,65.70
2022-11-05T03:14:34.897Z,65.70
2022-11-05T03:17:39.767Z,65.80
2022-11-05T03:20:25.441Z,65.70
2022-11-05T03:23:25.165Z,65.80
2022-11-05T03:26:07.788Z,66.60
2022-11-05T03:28:42.001Z,65.90
2022-11-05T03:31:15.825Z,66.00
2022-11-05T03:33:48.712Z,66.00
2022-11-05T03:36:28.980Z,65.90
2022-11-05T03:39:02.935Z,65.90
2022-11-05T03:41:35.965Z,65.90
2022-11-05T03:44:09.534Z,65.90
2022-11-05T03:46:49.668Z,65.90
2022-11-05T03:49:28.084Z,65.90
2022-11-05T03:52:30.418Z,65.80
2022-11-05T03:55:00.766Z,65.70
2022-11-05T03:57:35.170Z,65.90
2022-11-05T04:00:10.242Z,65.90
2022-11-05T04:02:40.846Z,65.90
2022-11-05T04:05:11.412Z,65.90
2022-11-05T04:07:59.994Z,65.80
2022-11-05T04:10:48.212Z,65.80
2022-11-05T04:13:27.216Z,65.90
2022-11-05T04:16:16.408Z,65.90
2022-11-05T04:18:46.686Z,65.90
2022-11-05T04:21:34.668Z,65.90
2022-11-05T04:24:10.657Z,65.90
2022-11-05T04:26:45.865Z,66.00
2022-11-05T04:29:34.356Z,65.90
2022-11-05T04:32:04.525Z,65.90
2022-11-05T04:34:34.790Z,65.90
2022-11-05T04:37:04.956Z,65.90
2022-11-05T04:39:35.265Z,65.90
2022-11-05T04:42:05.538Z,65.90
2022-11-05T04:44:35.831Z,65.80
2022-11-05T04:47:06.105Z,65.90
2022-11-05T04:49:36.304Z,65.80
2022-11-05T04:52:06.586Z,65.80
2022-11-05T04:54:36.818Z,65.70
2022-11-05T04:57:07.073Z,65.80
2022-11-05T04:59:37.484Z,65.90
2022-11-05T05:02:07.665Z,65.70
2022-11-05T05:04:38.174Z,65.80
2022-11-05T05:07:08.391Z,65.70
2022-11-05T05:09:38.703Z,65.90
2022-11-05T05:12:09.710Z,65.90
2022-11-05T05:14:40.210Z,65.80
2022-11-05T05:17:10.468Z,66.00
2022-11-05T05:19:58.891Z,66.10
2022-11-05T05:22:29.501Z,66.30
2022-11-05T05:25:02.729Z,66.30
2022-11-05T05:27:33.090Z,66.30
2022-11-05T05:30:03.358Z,66.10
2022-11-05T05:32:33.609Z,66.10
2022-11-05T05:35:03.757Z,66.20
2022-11-05T05:37:33.998Z,66.10
2022-11-05T05:40:04.396Z,66.10
2022-11-05T05:42:38.750Z,65.90
2022-11-05T05:45:12.447Z,66.00
2022-11-05T05:47:42.798Z,65.80
2022-11-05T05:50:13.080Z,65.80
2022-11-05T05:52:43.372Z,65.60
2022-11-05T05:55:14.390Z,65.50
2022-11-05T05:57:44.631Z,65.50
2022-11-05T06:00:15.536Z,65.30
2022-11-05T06:02:45.883Z,65.30
2022-11-05T06:05:16.282Z,65.30
2022-11-05T06:07:46.568Z,65.20
2022-11-05T06:10:16.821Z,65.20
2022-11-05T06:12:47.070Z,65.10
2022-11-05T06:15:17.351Z,65.90
2022-11-05T06:17:48.183Z,65.10
2022-11-05T06:20:18.448Z,65.20
2022-11-05T06:22:58.020Z,65.20
2022-11-05T06:25:28.532Z,65.40
2022-11-05T06:27:58.766Z,65.40
2022-11-05T06:30:28.991Z,65.40
2022-11-05T06:33:03.650Z,65.50
2022-11-05T06:35:34.408Z,65.50
2022-11-05T06:38:04.979Z,65.60
2022-11-05T06:40:35.110Z,65.70
2022-11-05T06:43:05.304Z,65.70
2022-11-05T06:45:35.544Z,65.90
2022-11-05T06:48:05.916Z,65.90
2022-11-05T06:50:36.181Z,65.90
2022-11-05T06:53:07.302Z,65.90
2022-11-05T06:55:37.470Z,66.00
2022-11-05T06:58:07.824Z,66.10
2022-11-05T07:00:38.075Z,66.10
2022-11-05T07:03:13.992Z,66.20
2022-11-05T07:05:50.171Z,66.20
2022-11-05T07:08:20.716Z,66.50
2022-11-05T07:10:51.500Z,66.40
2022-11-05T07:13:21.862Z,66.40
2022-11-05T07:15:52.175Z,66.40
2022-11-05T07:18:22.449Z,66.40
2022-11-05T07:20:52.735Z,66.40
2022-11-05T07:23:23.018Z,66.40
2022-11-05T07:25:53.515Z,66.40
2022-11-05T07:28:23.690Z,66.70
2022-11-05T07:30:53.965Z,66.70
2022-11-05T07:33:24.195Z,66.70
2022-11-05T07:35:54.542Z,66.80
2022-11-05T07:38:24.970Z,66.80
2022-11-05T07:40:55.253Z,66.80
2022-11-05T07:43:25.458Z,66.80
2022-11-05T07:45:55.720Z,66.70
2022-11-05T07:48:25.906Z,66.80
2022-11-05T07:50:56.276Z,66.70
2022-11-05T07:53:26.474Z,66.70
2022-11-05T07:55:58.878Z,66.60
2022-11-05T07:58:29.812Z,66.60
2022-11-05T08:01:00.750Z,66.50
2022-11-05T08:03:31.271Z,66.50
2022-11-05T08:06:02.323Z,66.50
2022-11-05T08:08:33.025Z,66.40
2022-11-05T08:11:11.336Z,66.40
2022-11-05T08:13:41.613Z,66.30
2022-11-05T08:16:12.505Z,66.30
2022-11-05T08:18:42.691Z,66.30
2022-11-05T08:21:13.135Z,66.30
2022-11-05T08:23:44.627Z,66.20
2022-11-05T08:26:14.887Z,66.10
2022-11-05T08:28:45.062Z,66.10
2022-11-05T08:31:17.200Z,66.00
2022-11-05T08:33:47.370Z,66.00
2022-11-05T08:36:17.608Z,66.00
2022-11-05T08:38:48.049Z,65.90
2022-11-05T08:41:18.215Z,65.90
2022-11-05T08:43:48.433Z,65.90
2022-11-05T08:46:18.676Z,65.80
2022-11-05T08:48:48.940Z,65.80
2022-11-05T08:51:19.096Z,65.80
2022-11-05T08:53:49.959Z,65.80
2022-11-05T08:56:20.269Z,65.70
2022-11-05T08:58:50.504Z,65.70
2022-11-05T09:01:20.921Z,65.70
2022-11-05T09:03:53.710Z,65.60
2022-11-05T09:06:24.176Z,65.60
2022-11-05T09:08:54.445Z,65.60
2022-11-05T09:11:37.584Z,65.50
2022-11-05T09:14:14.908Z,65.50
2022-11-05T09:16:45.803Z,65.60
2022-11-05T09:19:16.105Z,65.50
2022-11-05T09:21:46.455Z,65.50
2022-11-05T09:24:16.746Z,65.50
2022-11-05T09:26:47.048Z,65.50
2022-11-05T09:29:17.254Z,65.50
2022-11-05T09:31:47.958Z,65.50
2022-11-05T09:34:18.240Z,65.50
2022-11-05T09:36:48.452Z,65.50
2022-11-05T09:39:18.692Z,65.40
2022-11-05T09:41:50.440Z,65.50
2022-11-05T09:44:28.143Z,65.50
2022-11-05T09:47:03.931Z,65.50
2022-11-05T09:49:50.250Z,65.50
2022-11-05T09:52:32.182Z,65.50
2022-11-05T09:55:04.747Z,65.50
2022-11-05T09:57:52.632Z,65.50
2022-11-05T10:00:23.317Z,65.40
2022-11-05T10:02:58.202Z,65.50
2022-11-05T10:05:29.944Z,65.50
2022-11-05T10:08:13.056Z,65.50
2022-11-05T10:10:46.402Z,65.50
2022-11-05T10:13:38.124Z,65.50
2022-11-05T10:16:43.258Z,65.50
2022-11-05T10:19:39.273Z,65.50
2022-11-05T10:22:18.181Z,65.50
2022-11-05T10:24:51.492Z,65.70
2022-11-05T10:27:39.186Z,65.60
2022-11-05T10:30:10.121Z,65.50
2022-11-05T10:32:44.828Z,65.70
2022-11-05T10:35:20.451Z,65.60
2022-11-05T10:37:51.372Z,65.60
2022-11-05T10:40:36.414Z,65.50
2022-11-05T10:43:09.302Z,65.70
2022-11-05T10:45:54.814Z,65.70
2022-11-05T10:48:45.101Z,65.70
2022-11-05T10:51:16.281Z,65.90
2022-11-05T10:54:04.239Z,65.90
2022-11-05T10:56:42.923Z,65.90
2022-11-05T10:59:31.131Z,66.00
2022-11-05T11:02:27.710Z,66.00
2022-11-05T11:05:00.086Z,66.10
2022-11-05T11:07:30.367Z,66.20
2022-11-05T11:10:01.179Z,66.20
2022-11-05T11:12:41.183Z,66.10
2022-11-05T11:15:34.246Z,66.10
2022-11-05T11:18:26.899Z,66.10
2022-11-05T11:21:06.544Z,66.20
2022-11-05T11:23:42.178Z,66.20
2022-11-05T11:26:15.472Z,66.20
2022-11-05T11:29:07.775Z,66.20
2022-11-05T11:31:41.784Z,66.20
2022-11-05T11:34:18.412Z,66.30
2022-11-05T11:36:51.210Z,66.30
2022-11-05T11:39:28.856Z,66.30
2022-11-05T11:42:28.742Z,66.20
2022-11-05T11:45:02.439Z,66.00
2022-11-05T11:47:32.893Z,66.50
2022-11-05T11:50:05.045Z,66.00
2022-11-05T11:52:39.562Z,66.00
2022-11-05T11:55:15.782Z,66.10
2022-11-05T11:57:54.765Z,66.00
2022-11-05T12:00:28.626Z,66.00
2022-11-05T12:03:27.748Z,66.10
2022-11-05T12:06:46.215Z,66.00
2022-11-05T12:09:44.096Z,65.90
2022-11-05T12:12:19.415Z,65.90
2022-11-05T12:14:55.861Z,66.00
2022-11-05T12:17:47.404Z,65.90
2022-11-05T12:20:20.672Z,65.80
2022-11-05T12:23:02.687Z,65.80
2022-11-05T12:26:10.759Z,65.80
2022-11-05T12:29:16.511Z,65.70
2022-11-05T12:32:04.636Z,65.70
2022-11-05T12:34:59.142Z,65.70
2022-11-05T12:37:50.400Z,65.60
2022-11-05T12:40:45.512Z,65.60
2022-11-05T12:43:36.556Z,65.50
2022-11-05T12:46:16.292Z,65.50
2022-11-05T12:49:10.643Z,65.60
2022-11-05T12:52:14.176Z,65.50
2022-11-05T12:55:13.243Z,65.60
2022-11-05T12:57:47.091Z,65.50
2022-11-05T13:00:25.573Z,65.50
2022-11-05T13:03:22.964Z,65.40
2022-11-05T13:06:05.491Z,65.30
2022-11-05T13:09:04.993Z,65.50
2022-11-05T13:11:50.607Z,65.40
2022-11-05T13:14:51.173Z,65.40
2022-11-05T13:17:31.500Z,65.30
2022-11-05T13:20:24.042Z,65.40
2022-11-05T13:23:25.821Z,65.30
2022-11-05T13:26:21.844Z,65.40
2022-11-05T13:29:10.718Z,65.40
2022-11-05T13:31:55.647Z,65.40
2022-11-05T13:34:25.898Z,65.40
2022-11-05T13:37:19.515Z,65.50
2022-11-05T13:40:01.873Z,65.40
2022-11-05T13:42:55.962Z,65.40
2022-11-05T13:45:35.321Z,65.40
2022-11-05T13:48:31.455Z,65.40
2022-11-05T13:51:38.939Z,65.30
2022-11-05T13:54:47.649Z,65.40
2022-11-05T13:57:43.859Z,65.40
2022-11-05T14:00:28.925Z,65.40
2022-11-05T14:03:17.183Z,65.40
2022-11-05T14:06:04.961Z,65.40
2022-11-05T14:08:45.774Z,65.50
2022-11-05T14:11:26.487Z,65.40
2022-11-05T14:14:01.701Z,65.40
2022-11-05T14:17:03.284Z,65.40
2022-11-05T14:19:37.938Z,65.30
2022-11-05T14:22:35.477Z,65.40
2022-11-05T14:25:26.902Z,65.30
2022-11-05T14:28:00.176Z,65.20
2022-11-05T14:30:56.900Z,65.50
2022-11-05T14:33:30.193Z,65.20
2022-11-05T14:36:32.086Z,65.40
2022-11-05T14:39:27.502Z,65.20
2022-11-05T14:42:28.080Z,65.30
2022-11-05T14:45:21.290Z,65.30
2022-11-05T14:48:07.077Z,65.50
2022-11-05T14:50:43.067Z,65.50
2022-11-05T14:53:38.684Z,65.50
2022-11-05T14:56:19.884Z,65.30
2022-11-05T14:58:50.233Z,65.50
2022-11-05T15:01:35.720Z,65.60
2022-11-05T15:04:26.260Z,65.50
2022-11-05T15:07:08.743Z,65.50
2022-11-05T15:09:56.574Z,65.40
2022-11-05T15:12:49.902Z,65.50
2022-11-05T15:15:31.424Z,65.40
2022-11-05T15:18:28.100Z,65.50
2022-11-05T15:21:02.560Z,65.50
2022-11-05T15:23:47.729Z,65.60
2022-11-05T15:26:26.916Z,65.50
2022-11-05T15:28:58.675Z,65.40
2022-11-05T15:31:43.014Z,65.50
2022-11-05T15:34:22.218Z,65.50
2022-11-05T15:37:22.955Z,65.50
2022-11-05T15:39:55.102Z,65.40
2022-11-05T15:42:27.934Z,65.50
2022-11-05T15:45:02.094Z,65.50
2022-11-05T15:47:36.661Z,65.50
2022-11-05T15:50:18.444Z,65.50
2022-11-05T15:52:55.462Z,65.40
2022-11-05T15:55:29.453Z,65.50
2022-11-05T15:58:06.640Z,65.50
2022-11-05T16:00:38.765Z,65.50
2022-11-05T16:03:34.269Z,65.50
2022-11-05T16:06:05.066Z,65.40
2022-11-05T16:08:35.561Z,65.60
2022-11-05T16:11:05.810Z,65.60
2022-11-05T16:13:43.838Z,65.50
2022-11-05T16:16:17.126Z,65.50
2022-11-05T16:18:48.059Z,65.50
2022-11-05T16:21:24.866Z,65.50
2022-11-05T16:24:02.123Z,65.50
2022-11-05T16:27:01.708Z,65.50
2022-11-05T16:29:35.284Z,65.50
2022-11-05T16:32:31.048Z,65.60
2022-11-05T16:35:09.239Z,65.60
2022-11-05T16:37:50.753Z,65.60
2022-11-05T16:40:25.250Z,65.60
2022-11-05T16:42:57.060Z,65.60
2022-11-05T16:45:28.091Z,65.60
2022-11-05T16:47:58.410Z,65.60
2022-11-05T16:50:32.998Z,65.60
2022-11-05T16:53:03.671Z,65.50
2022-11-05T16:55:35.452Z,65.60
2022-11-05T16:58:05.792Z,65.60
2022-11-05T17:00:36.254Z,65.60
2022-11-05T17:03:06.505Z,65.60
2022-11-05T17:05:37.120Z,65.60
2022-11-05T17:08:07.741Z,65.60
2022-11-05T17:10:38.319Z,65.60
2022-11-05T17:13:08.557Z,66.30
2022-11-05T17:15:38.786Z,65.60
2022-11-05T17:18:11.668Z,65.60
2022-11-05T17:20:48.403Z,65.60
2022-11-05T17:23:20.766Z,65.60
2022-11-05T17:25:53.704Z,65.60
2022-11-05T17:28:24.473Z,65.60
2022-11-05T17:30:55.153Z,65.60
2022-11-05T17:33:25.898Z,65.60
2022-11-05T17:35:56.655Z,65.60
2022-11-05T17:38:32.886Z,65.60
2022-11-05T17:41:03.401Z,65.60
2022-11-05T17:43:33.817Z,65.60
2022-11-05T17:46:08.615Z,65.70
2022-11-05T17:48:40.352Z,65.60
2022-11-05T17:51:16.682Z,65.70
2022-11-05T17:53:48.983Z,65.60
2022-11-05T17:56:33.474Z,65.60
2022-11-05T17:59:05.626Z,65.70
2022-11-05T18:01:44.804Z,65.70
2022-11-05T18:04:15.374Z,65.70
2022-11-05T18:06:45.787Z,65.70
2022-11-05T18:09:16.394Z,65.70
2022-11-05T18:11:46.804Z,65.70
2022-11-05T18:14:22.836Z,65.60
2022-11-05T18:16:56.851Z,65.70
2022-11-05T18:19:27.040Z,65.90
2022-11-05T18:21:58.071Z,65.90
2022-11-05T18:24:28.400Z,65.90
2022-11-05T18:26:58.677Z,65.90
2022-11-05T18:29:29.240Z,65.80
2022-11-05T18:31:59.486Z,65.80
2022-11-05T18:34:29.714Z,65.80
2022-11-05T18:36:59.974Z,65.80
2022-11-05T18:39:30.237Z,65.80
2022-11-05T18:42:00.462Z,65.80
2022-11-05T18:44:32.710Z,65.60
2022-11-05T18:47:07.538Z,65.60
2022-11-05T18:49:38.399Z,65.60
2022-11-05T18:52:08.853Z,65.70
2022-11-05T18:54:39.230Z,65.70
2022-11-05T18:57:09.725Z,65.70
2022-11-05T18:59:40.251Z,65.70
2022-11-05T19:02:11.181Z,65.70
2022-11-05T19:05:00.256Z,65.70
2022-11-05T19:07:32.466Z,65.70
2022-11-05T19:10:02.695Z,65.70
2022-11-05T19:12:32.859Z,65.70
2022-11-05T19:15:03.435Z,65.70
2022-11-05T19:17:35.399Z,65.70
2022-11-05T19:20:06.936Z,65.60
2022-11-05T19:22:37.169Z,65.70
2022-11-05T19:25:08.420Z,65.70
2022-11-05T19:27:40.439Z,65.70
2022-11-05T19:30:11.219Z,65.70
2022-11-05T19:32:41.418Z,65.70
2022-11-05T19:35:11.789Z,65.60
2022-11-05T19:37:42.057Z,65.70
2022-11-05T19:40:13.913Z,65.60
2022-11-05T19:42:44.243Z,65.60
2022-11-05T19:45:42.877Z,65.60
2022-11-05T19:48:05.044Z,65.70
2022-11-05T19:50:35.652Z,65.70
2022-11-05T19:53:05.866Z,65.70
2022-11-05T19:55:36.250Z,65.70
2022-11-05T19:58:06.386Z,65.70
2022-11-05T20:00:37.020Z,65.70
2022-11-05T20:03:07.257Z,65.70
2022-11-05T20:05:38.419Z,65.70
2022-11-05T20:08:12.034Z,65.70
2022-11-05T20:10:42.837Z,65.70
2022-11-05T20:13:18.535Z,65.70
2022-11-05T20:15:50.180Z,65.70
2022-11-05T20:18:20.725Z,65.70
2022-11-05T20:20:51.445Z,65.70
2022-11-05T20:23:21.918Z,65.80
2022-11-05T20:25:52.398Z,65.70
2022-11-05T20:28:22.624Z,65.80
2022-11-05T20:30:52.863Z,65.80
2022-11-05T20:33:23.693Z,66.50
2022-11-05T20:35:53.899Z,65.80
2022-11-05T20:38:29.450Z,65.80
2022-11-05T20:41:00.470Z,65.80
2022-11-05T20:43:32.318Z,65.80
2022-11-05T20:46:02.593Z,66.60
2022-11-05T20:48:37.045Z,65.90
2022-11-05T20:51:10.041Z,65.90
2022-11-05T20:53:41.121Z,65.90
2022-11-05T20:56:17.988Z,65.90
2022-11-05T20:58:49.093Z,65.90
2022-11-05T21:01:20.537Z,65.90
2022-11-05T21:03:51.341Z,65.90
2022-11-05T21:06:21.636Z,66.00
2022-11-05T21:08:53.323Z,65.90
2022-11-05T21:11:23.797Z,65.90
2022-11-05T21:13:54.172Z,66.00
2022-11-05T21:16:24.519Z,66.00
2022-11-05T21:18:54.703Z,66.00
2022-11-05T21:21:24.973Z,66.00
2022-11-05T21:23:55.133Z,66.00
2022-11-05T21:26:25.429Z,66.00
2022-11-05T21:28:55.668Z,66.20
2022-11-05T21:31:25.888Z,66.40
2022-11-05T21:33:56.029Z,66.40
2022-11-05T21:36:26.429Z,66.40
2022-11-05T21:38:56.594Z,66.50
2022-11-05T21:41:26.925Z,66.60
2022-11-05T21:43:57.129Z,67.50
2022-11-05T21:46:27.540Z,66.70
2022-11-05T21:48:57.772Z,66.80
2022-11-05T21:51:45.995Z,66.80
2022-11-05T21:54:34.009Z,66.90
2022-11-05T21:57:22.772Z,67.10
2022-11-05T21:59:58.111Z,67.10
2022-11-05T22:02:30.351Z,67.20
2022-11-05T22:05:01.743Z,67.20
2022-11-05T22:07:35.615Z,67.20
2022-11-05T22:10:10.721Z,67.40
2022-11-05T22:12:45.835Z,67.60
2022-11-05T22:15:16.706Z,67.60
2022-11-05T22:17:47.369Z,67.60
2022-11-05T22:20:18.816Z,68.20
2022-11-05T22:22:49.906Z,67.50
2022-11-05T22:25:20.412Z,67.60
2022-11-05T22:27:50.777Z,67.60
2022-11-05T22:30:21.098Z,67.60
2022-11-05T22:32:51.352Z,67.70
2022-11-05T22:35:21.671Z,67.90
2022-11-05T22:37:51.823Z,68.00
2022-11-05T22:40:24.016Z,68.10
2022-11-05T22:42:54.582Z,68.10
2022-11-05T22:45:24.878Z,68.20
2022-11-05T22:47:55.213Z,68.20
2022-11-05T22:50:25.689Z,68.10
2022-11-05T22:52:56.159Z,68.20
2022-11-05T22:55:26.407Z,68.10
2022-11-05T22:57:56.685Z,68.10
2022-11-05T23:00:40.629Z,68.10
2022-11-05T23:03:10.840Z,68.10
2022-11-05T23:05:41.098Z,67.90
2022-11-05T23:08:30.777Z,67.80
2022-11-05T23:11:29.735Z,67.70
2022-11-05T23:13:59.870Z,67.60
2022-11-05T23:16:48.411Z,67.60
2022-11-05T23:19:36.782Z,67.50
2022-11-05T23:22:35.906Z,67.40
2022-11-05T23:25:07.421Z,67.30
2022-11-05T23:27:40.153Z,67.30
2022-11-05T23:30:14.679Z,67.20
2022-11-05T23:32:45.282Z,67.20
2022-11-05T23:35:15.967Z,67.10
2022-11-05T23:38:04.196Z,67.10
2022-11-05T23:40:57.474Z,67.10
2022-11-05T23:43:46.269Z,67.10
2022-11-05T23:46:34.533Z,67.00
2022-11-05T23:49:04.767Z,67.00
2022-11-05T23:51:35.078Z,67.00
2022-11-05T23:54:05.269Z,67.00
2022-11-05T23:56:35.533Z,67.00
2022-11-05T23:59:06.527Z,67.30
